createdAt,value
2019-04-29T00:02:23.761Z,52.05
2019-04-29T00:04:57.030Z,55.13
2019-04-29T00:07:31.400Z,57.87
2019-04-29T00:10:07.239Z,59.64
2019-04-29T00:12:42.846Z,61.37
2019-04-29T00:15:38.023Z,62.73
2019-04-29T00:18:16.687Z,60.40
2019-04-29T00:20:51.252Z,52.72
2019-04-29T00:23:24.412Z,54.24
2019-04-29T00:25:57.649Z,56.91
2019-04-29T00:28:30.997Z,59.15
2019-04-29T00:31:04.272Z,61.07
2019-04-29T00:33:37.552Z,62.35
2019-04-29T00:36:10.832Z,61.96
2019-04-29T00:39:05.941Z,53.47
2019-04-29T00:42:07.885Z,53.15
2019-04-29T00:44:41.133Z,56.48
2019-04-29T00:47:14.529Z,58.93
2019-04-29T00:49:47.822Z,60.63
2019-04-29T00:52:21.084Z,62.48
2019-04-29T00:55:00.450Z,61.23
2019-04-29T00:57:33.675Z,53.15
2019-04-29T01:00:08.335Z,54.99
2019-04-29T01:02:42.163Z,57.58
2019-04-29T01:05:15.482Z,60.04
2019-04-29T01:07:48.660Z,62.07
2019-04-29T01:10:21.922Z,63.03
2019-04-29T01:12:55.148Z,61.90
2019-04-29T01:15:29.934Z,53.51
2019-04-29T01:18:04.616Z,54.48
2019-04-29T01:20:37.851Z,57.30
2019-04-29T01:23:11.133Z,59.56
2019-04-29T01:25:45.939Z,61.53
2019-04-29T01:28:30.544Z,63.14
2019-04-29T01:31:16.729Z,60.56
2019-04-29T01:33:52.309Z,52.83
2019-04-29T01:36:42.296Z,55.15
2019-04-29T01:39:17.258Z,57.94
2019-04-29T01:42:11.611Z,59.84
2019-04-29T01:44:44.904Z,61.80
2019-04-29T01:47:18.149Z,62.94
2019-04-29T01:49:51.326Z,62.14
2019-04-29T01:52:24.590Z,53.54
2019-04-29T01:54:57.749Z,52.63
2019-04-29T01:57:30.883Z,55.74
2019-04-29T02:00:04.118Z,58.29
2019-04-29T02:02:37.456Z,60.30
2019-04-29T02:05:10.811Z,61.71
2019-04-29T02:07:43.975Z,62.81
2019-04-29T02:10:31.148Z,62.27
2019-04-29T02:13:04.426Z,52.53
2019-04-29T02:15:37.668Z,53.54
2019-04-29T02:18:11.906Z,56.39
2019-04-29T02:20:45.197Z,58.77
2019-04-29T02:23:23.810Z,61.31
2019-04-29T02:25:57.102Z,62.62
2019-04-29T02:28:30.406Z,61.08
2019-04-29T02:31:21.222Z,52.77
2019-04-29T02:33:57.617Z,53.05
2019-04-29T02:36:32.620Z,55.82
2019-04-29T02:39:30.565Z,58.33
2019-04-29T02:42:28.684Z,60.42
2019-04-29T02:45:06.237Z,62.98
2019-04-29T02:47:39.563Z,61.16
2019-04-29T02:50:14.089Z,52.85
2019-04-29T02:52:47.310Z,54.34
2019-04-29T02:55:42.555Z,57.06
2019-04-29T02:58:21.636Z,59.83
2019-04-29T03:01:13.655Z,62.24
2019-04-29T03:04:04.656Z,60.02
2019-04-29T03:06:38.018Z,55.54
2019-04-29T03:09:11.192Z,57.84
2019-04-29T03:11:44.519Z,60.06
2019-04-29T03:14:17.669Z,61.48
2019-04-29T03:16:51.071Z,63.94
2019-04-29T03:19:29.453Z,56.78
2019-04-29T03:22:04.644Z,54.32
2019-04-29T03:24:37.913Z,57.04
2019-04-29T03:27:12.487Z,59.33
2019-04-29T03:29:46.457Z,61.55
2019-04-29T03:32:19.748Z,63.02
2019-04-29T03:34:54.000Z,60.61
2019-04-29T03:37:27.281Z,54.19
2019-04-29T03:40:00.562Z,55.91
2019-04-29T03:42:33.743Z,58.55
2019-04-29T03:45:07.782Z,61.08
2019-04-29T03:47:42.077Z,62.46
2019-04-29T03:50:15.432Z,61.56
2019-04-29T03:52:48.598Z,53.26
2019-04-29T03:55:38.117Z,53.97
2019-04-29T03:57:56.876Z,56.71
2019-04-29T04:00:30.117Z,59.16
2019-04-29T04:03:28.390Z,61.12
2019-04-29T04:06:23.608Z,62.78
2019-04-29T04:09:15.604Z,60.61
2019-04-29T04:11:48.917Z,54.92
2019-04-29T04:14:22.166Z,57.30
2019-04-29T04:17:14.560Z,59.76
2019-04-29T04:19:48.465Z,62.52
2019-04-29T04:22:21.733Z,60.93
2019-04-29T04:24:54.903Z,52.93
2019-04-29T04:27:28.276Z,51.87
2019-04-29T04:30:01.547Z,55.19
2019-04-29T04:32:34.950Z,57.99
2019-04-29T04:35:08.340Z,60.04
2019-04-29T04:37:41.712Z,61.43
2019-04-29T04:40:18.324Z,63.36
2019-04-29T04:42:51.608Z,61.15
2019-04-29T04:45:24.851Z,52.84
2019-04-29T04:47:58.148Z,52.38
2019-04-29T04:50:33.675Z,55.52
2019-04-29T04:53:07.999Z,58.23
2019-04-29T04:55:42.872Z,60.46
2019-04-29T04:58:16.184Z,62.25
2019-04-29T05:00:51.513Z,60.77
2019-04-29T05:03:24.831Z,52.74
2019-04-29T05:06:00.266Z,53.37
2019-04-29T05:08:35.386Z,56.33
2019-04-29T05:11:08.785Z,58.48
2019-04-29T05:13:43.580Z,60.74
2019-04-29T05:16:17.219Z,62.12
2019-04-29T05:18:51.572Z,60.85
2019-04-29T05:21:24.793Z,53.57
2019-04-29T05:23:58.117Z,51.06
2019-04-29T05:26:31.567Z,54.24
2019-04-29T05:29:04.881Z,57.13
2019-04-29T05:31:38.203Z,59.58
2019-04-29T05:34:12.411Z,61.49
2019-04-29T05:36:53.925Z,62.90
2019-04-29T05:39:30.740Z,61.07
2019-04-29T05:42:07.662Z,52.64
2019-04-29T05:44:50.315Z,52.62
2019-04-29T05:47:42.335Z,56.23
2019-04-29T05:50:26.396Z,58.79
2019-04-29T05:53:11.387Z,60.48
2019-04-29T05:55:43.390Z,62.27
2019-04-29T05:58:16.683Z,63.62
2019-04-29T06:01:04.115Z,61.22
2019-04-29T06:03:38.430Z,52.19
2019-04-29T06:06:12.501Z,52.47
2019-04-29T06:08:46.192Z,55.82
2019-04-29T06:11:19.410Z,58.32
2019-04-29T06:13:52.747Z,60.82
2019-04-29T06:16:25.986Z,61.94
2019-04-29T06:19:00.322Z,63.84
2019-04-29T06:21:34.281Z,56.31
2019-04-29T06:24:07.759Z,53.02
2019-04-29T06:26:43.590Z,55.78
2019-04-29T06:29:16.594Z,58.42
2019-04-29T06:31:49.865Z,60.54
2019-04-29T06:34:23.218Z,62.12
2019-04-29T06:36:56.505Z,61.01
2019-04-29T06:39:29.940Z,52.50
2019-04-29T06:42:03.252Z,53.80
2019-04-29T06:44:36.754Z,56.52
2019-04-29T06:47:09.969Z,58.73
2019-04-29T06:49:43.266Z,60.84
2019-04-29T06:52:18.501Z,62.51
2019-04-29T06:54:51.704Z,60.52
2019-04-29T06:57:25.314Z,53.99
2019-04-29T06:59:58.542Z,56.07
2019-04-29T07:02:31.839Z,58.77
2019-04-29T07:05:05.376Z,60.74
2019-04-29T07:07:38.747Z,62.54
2019-04-29T07:10:12.204Z,60.92
2019-04-29T07:12:47.370Z,52.63
2019-04-29T07:15:20.336Z,50.79
2019-04-29T07:17:53.621Z,53.82
2019-04-29T07:20:27.016Z,56.27
2019-04-29T07:23:00.763Z,58.22
2019-04-29T07:25:35.086Z,60.43
2019-04-29T07:28:08.261Z,61.84
2019-04-29T07:31:00.671Z,62.68
2019-04-29T07:33:22.060Z,61.53
2019-04-29T07:35:51.482Z,52.37
2019-04-29T07:38:24.762Z,51.61
2019-04-29T07:40:58.140Z,54.63
2019-04-29T07:43:32.434Z,57.06
2019-04-29T07:46:30.382Z,59.36
2019-04-29T07:49:05.695Z,60.89
2019-04-29T07:51:39.432Z,62.27
2019-04-29T07:54:15.966Z,63.41
2019-04-29T07:56:48.555Z,61.60
2019-04-29T07:59:23.347Z,52.53
2019-04-29T08:01:59.927Z,51.66
2019-04-29T08:04:45.393Z,54.42
2019-04-29T08:07:30.563Z,56.95
2019-04-29T08:10:15.491Z,59.03
2019-04-29T08:12:40.881Z,60.29
2019-04-29T08:15:15.204Z,62.12
2019-04-29T08:17:51.352Z,60.07
2019-04-29T08:20:23.705Z,51.70
2019-04-29T08:22:58.395Z,51.92
2019-04-29T08:25:31.927Z,54.70
2019-04-29T08:28:06.349Z,57.10
2019-04-29T08:30:41.761Z,58.78
2019-04-29T08:33:14.534Z,60.65
2019-04-29T08:35:47.778Z,61.91
2019-04-29T08:38:21.035Z,63.48
2019-04-29T08:40:54.513Z,61.10
2019-04-29T08:43:52.403Z,52.00
2019-04-29T08:46:31.705Z,51.80
2019-04-29T08:49:05.965Z,54.47
2019-04-29T08:51:39.984Z,57.12
2019-04-29T08:54:16.084Z,58.70
2019-04-29T08:57:02.360Z,60.10
2019-04-29T08:59:24.633Z,61.91
2019-04-29T09:01:59.008Z,63.73
2019-04-29T09:04:33.173Z,60.68
2019-04-29T09:07:12.855Z,51.86
2019-04-29T09:09:41.982Z,52.95
2019-04-29T09:12:18.966Z,55.94
2019-04-29T09:14:50.066Z,58.84
2019-04-29T09:17:23.328Z,59.49
2019-04-29T09:19:56.514Z,60.49
2019-04-29T09:22:31.516Z,61.61
2019-04-29T09:25:26.178Z,63.06
2019-04-29T09:27:58.102Z,60.10
2019-04-29T09:30:31.335Z,54.18
2019-04-29T09:33:08.610Z,55.90
2019-04-29T09:35:40.594Z,58.66
2019-04-29T09:38:14.131Z,60.38
2019-04-29T09:40:54.684Z,59.56
2019-04-29T09:43:39.538Z,59.90
2019-04-29T09:46:18.523Z,60.69
2019-04-29T09:48:51.664Z,61.93
2019-04-29T09:51:27.982Z,55.44
2019-04-29T09:53:59.874Z,51.70
2019-04-29T09:56:34.759Z,53.69
2019-04-29T09:59:26.759Z,55.96
2019-04-29T10:02:18.908Z,57.07
2019-04-29T10:05:04.550Z,58.63
2019-04-29T10:07:38.313Z,58.72
2019-04-29T10:10:11.707Z,58.61
2019-04-29T10:12:44.969Z,59.76
2019-04-29T10:15:23.031Z,58.71
2019-04-29T10:18:03.980Z,59.96
2019-04-29T10:20:45.582Z,59.97
2019-04-29T10:23:19.018Z,59.76
2019-04-29T10:25:52.329Z,59.27
2019-04-29T10:28:25.711Z,59.88
2019-04-29T10:31:01.611Z,59.13
2019-04-29T10:33:35.195Z,61.53
2019-04-29T10:36:09.265Z,61.67
2019-04-29T10:38:44.897Z,58.90
2019-04-29T10:41:40.229Z,59.22
2019-04-29T10:44:28.741Z,59.68
2019-04-29T10:47:23.085Z,59.51
2019-04-29T10:49:59.406Z,60.70
2019-04-29T10:52:34.605Z,60.28
2019-04-29T10:55:08.829Z,58.49
2019-04-29T10:57:44.812Z,58.30
2019-04-29T11:00:41.519Z,57.22
2019-04-29T11:03:14.827Z,56.54
2019-04-29T11:06:00.294Z,57.92
2019-04-29T11:08:45.317Z,57.33
2019-04-29T11:11:23.212Z,55.48
2019-04-29T11:13:53.571Z,54.28
2019-04-29T11:16:45.311Z,54.06
2019-04-29T11:19:05.633Z,54.90
2019-04-29T11:21:39.439Z,53.94
2019-04-29T11:24:23.598Z,53.79
2019-04-29T11:27:12.107Z,54.75
2019-04-29T11:29:45.489Z,54.74
2019-04-29T11:32:29.288Z,53.08
2019-04-29T11:35:20.240Z,54.54
2019-04-29T11:37:55.442Z,52.38
2019-04-29T11:40:42.515Z,52.66
2019-04-29T11:43:03.794Z,51.36
2019-04-29T11:45:38.668Z,50.91
2019-04-29T11:48:12.415Z,51.51
2019-04-29T11:51:16.820Z,50.58
2019-04-29T11:53:50.602Z,50.34
2019-04-29T11:56:24.938Z,51.34
2019-04-29T11:59:04.946Z,50.28
2019-04-29T12:01:53.546Z,49.79
2019-04-29T12:04:34.711Z,49.95
2019-04-29T12:07:10.568Z,50.58
2019-04-29T12:09:52.175Z,51.91
2019-04-29T12:12:32.338Z,52.01
2019-04-29T12:15:25.558Z,51.72
2019-04-29T12:18:14.041Z,51.34
2019-04-29T12:20:57.057Z,51.90
2019-04-29T12:23:30.355Z,51.91
2019-04-29T12:26:05.055Z,51.88
2019-04-29T12:28:42.888Z,51.87
2019-04-29T12:31:25.786Z,51.65
2019-04-29T12:34:27.016Z,51.54
2019-04-29T12:37:02.166Z,52.23
2019-04-29T12:40:00.692Z,52.99
2019-04-29T12:42:55.088Z,52.51
2019-04-29T12:45:33.003Z,52.09
2019-04-29T12:48:06.661Z,51.33
2019-04-29T12:50:40.084Z,52.06
2019-04-29T12:53:14.025Z,49.52
2019-04-29T12:55:52.970Z,48.72
2019-04-29T12:58:25.608Z,48.80
2019-04-29T13:01:05.975Z,49.12
2019-04-29T13:03:54.085Z,48.54
2019-04-29T13:06:39.274Z,47.90
2019-04-29T13:09:17.906Z,47.82
2019-04-29T13:11:57.954Z,47.59
2019-04-29T13:14:28.746Z,47.08
2019-04-29T13:17:14.839Z,46.89
2019-04-29T13:20:17.953Z,46.35
2019-04-29T13:22:51.912Z,46.76
2019-04-29T13:25:26.889Z,46.38
2019-04-29T13:28:03.875Z,46.58
2019-04-29T13:30:35.602Z,47.31
2019-04-29T13:33:16.366Z,46.00
2019-04-29T13:35:48.453Z,45.53
2019-04-29T13:38:18.686Z,46.22
2019-04-29T13:41:11.430Z,45.87
2019-04-29T13:43:27.658Z,46.43
2019-04-29T13:46:11.223Z,46.42
2019-04-29T13:49:13.685Z,46.49
2019-04-29T13:51:47.387Z,45.93
2019-04-29T13:54:20.577Z,47.21
2019-04-29T13:56:56.703Z,46.53
2019-04-29T13:59:49.042Z,45.22
2019-04-29T14:02:31.381Z,45.24
2019-04-29T14:05:02.151Z,44.65
2019-04-29T14:07:38.882Z,45.03
2019-04-29T14:10:14.979Z,44.31
2019-04-29T14:12:48.837Z,44.45
2019-04-29T14:15:21.964Z,44.60
2019-04-29T14:17:55.386Z,44.62
2019-04-29T14:20:28.667Z,44.14
2019-04-29T14:23:01.901Z,44.60
2019-04-29T14:25:35.199Z,44.21
2019-04-29T14:28:08.513Z,43.45
2019-04-29T14:30:43.725Z,43.97
2019-04-29T14:33:24.211Z,44.17
2019-04-29T14:36:02.810Z,43.81
2019-04-29T14:38:40.573Z,43.63
2019-04-29T14:41:14.375Z,42.90
2019-04-29T14:44:04.219Z,43.54
2019-04-29T14:46:56.576Z,43.13
2019-04-29T14:49:35.432Z,43.31
2019-04-29T14:52:13.152Z,43.53
2019-04-29T14:54:45.242Z,43.26
2019-04-29T14:57:19.472Z,43.38
2019-04-29T14:59:53.290Z,42.99
2019-04-29T15:02:27.784Z,43.38
2019-04-29T15:05:07.357Z,42.61
2019-04-29T15:07:42.270Z,43.24
2019-04-29T15:10:15.979Z,43.56
2019-04-29T15:13:19.800Z,43.95
2019-04-29T15:16:04.269Z,44.30
2019-04-29T15:19:02.719Z,44.13
2019-04-29T15:21:44.993Z,43.74
2019-04-29T15:24:18.312Z,43.92
2019-04-29T15:26:52.000Z,43.45
2019-04-29T15:29:28.429Z,42.99
2019-04-29T15:32:01.852Z,43.90
2019-04-29T15:34:36.343Z,43.99
2019-04-29T15:37:09.789Z,44.20
2019-04-29T15:39:46.089Z,43.67
2019-04-29T15:42:18.088Z,43.60
2019-04-29T15:44:55.795Z,43.17
2019-04-29T15:47:31.190Z,43.91
2019-04-29T15:50:17.389Z,43.25
2019-04-29T15:52:39.563Z,43.61
2019-04-29T15:55:13.538Z,44.19
2019-04-29T15:57:50.342Z,43.21
2019-04-29T16:00:23.399Z,42.83
2019-04-29T16:02:57.890Z,43.16
2019-04-29T16:06:04.608Z,43.50
2019-04-29T16:08:29.383Z,43.01
2019-04-29T16:11:29.354Z,42.35
2019-04-29T16:16:41.198Z,43.22
2019-04-29T16:19:15.240Z,42.48
2019-04-29T16:21:48.657Z,42.74
2019-04-29T16:24:27.081Z,43.10
2019-04-29T16:27:01.366Z,41.89
2019-04-29T16:29:33.249Z,41.54
2019-04-29T16:32:11.695Z,42.11
2019-04-29T16:34:51.094Z,41.74
2019-04-29T16:37:31.821Z,41.36
2019-04-29T16:40:04.546Z,41.78
2019-04-29T16:43:07.563Z,41.29
2019-04-29T16:46:03.052Z,40.97
2019-04-29T16:48:43.065Z,41.38
2019-04-29T16:51:19.406Z,40.93
2019-04-29T16:53:52.859Z,41.25
2019-04-29T16:56:27.345Z,40.87
2019-04-29T16:59:08.897Z,40.49
2019-04-29T17:01:36.437Z,40.90
2019-04-29T17:04:14.032Z,41.13
2019-04-29T17:07:11.329Z,41.49
2019-04-29T17:09:48.199Z,42.01
2019-04-29T17:12:21.684Z,41.55
2019-04-29T17:15:03.983Z,41.61
2019-04-29T17:17:30.229Z,41.70
2019-04-29T17:20:03.702Z,41.74
2019-04-29T17:22:43.226Z,42.06
2019-04-29T17:25:14.151Z,42.65
2019-04-29T17:27:56.282Z,42.68
2019-04-29T17:30:48.908Z,42.52
2019-04-29T17:33:49.478Z,42.84
2019-04-29T17:35:15.562Z,42.94
2019-04-29T17:36:23.746Z,42.74
2019-04-29T17:38:57.361Z,43.08
2019-04-29T17:41:30.828Z,42.97
2019-04-29T17:44:18.727Z,42.82
2019-04-29T17:47:11.597Z,43.06
2019-04-29T17:50:06.659Z,42.96
2019-04-29T17:52:40.164Z,43.33
2019-04-29T17:55:47.580Z,43.59
2019-04-29T17:58:51.680Z,43.34
2019-04-29T18:01:42.980Z,43.84
2019-04-29T18:04:42.645Z,44.21
2019-04-29T18:07:25.056Z,44.22
2019-04-29T18:10:29.475Z,44.55
2019-04-29T18:13:00.759Z,45.10
2019-04-29T18:15:47.474Z,45.21
2019-04-29T18:18:17.526Z,45.37
2019-04-29T18:21:18.617Z,45.51
2019-04-29T18:24:15.234Z,46.21
2019-04-29T18:26:53.460Z,46.12
2019-04-29T18:29:26.399Z,46.39
2019-04-29T18:32:00.566Z,46.68
2019-04-29T18:34:37.383Z,46.88
2019-04-29T18:37:11.595Z,47.14
2019-04-29T18:39:44.938Z,47.76
2019-04-29T18:42:18.639Z,48.03
2019-04-29T18:44:59.773Z,48.39
2019-04-29T18:47:34.818Z,48.49
2019-04-29T18:50:04.926Z,48.70
2019-04-29T18:52:37.938Z,48.84
2019-04-29T18:55:11.713Z,48.97
2019-04-29T18:57:44.955Z,49.11
2019-04-29T19:00:19.976Z,49.63
2019-04-29T19:02:58.484Z,49.39
2019-04-29T19:05:36.095Z,49.86
2019-04-29T19:08:13.990Z,50.00
2019-04-29T19:10:49.869Z,49.52
2019-04-29T19:13:19.648Z,49.45
2019-04-29T19:15:58.798Z,49.61
2019-04-29T19:18:30.190Z,49.68
2019-04-29T19:21:03.431Z,49.76
2019-04-29T19:23:38.289Z,49.75
2019-04-29T19:26:12.071Z,49.88
2019-04-29T19:28:47.018Z,49.72
2019-04-29T19:31:21.838Z,49.72
2019-04-29T19:33:57.238Z,49.99
2019-04-29T19:36:37.125Z,49.83
2019-04-29T19:39:16.834Z,50.03
2019-04-29T19:41:52.344Z,50.59
2019-04-29T19:44:33.229Z,49.86
2019-04-29T19:47:02.803Z,49.71
2019-04-29T19:49:40.290Z,49.17
2019-04-29T19:52:11.349Z,49.55
2019-04-29T19:54:50.445Z,49.20
2019-04-29T19:57:25.514Z,49.27
2019-04-29T20:00:01.160Z,49.22
2019-04-29T20:02:35.938Z,49.14
2019-04-29T20:05:30.645Z,49.07
2019-04-29T20:07:59.270Z,48.54
2019-04-29T20:10:44.413Z,48.83
2019-04-29T20:13:09.044Z,48.73
2019-04-29T20:15:53.117Z,47.79
2019-04-29T20:19:00.975Z,47.78
2019-04-29T20:21:36.211Z,47.83
2019-04-29T20:24:15.510Z,47.42
2019-04-29T20:26:46.940Z,46.87
2019-04-29T20:29:20.065Z,46.64
2019-04-29T20:31:56.287Z,46.45
2019-04-29T20:34:28.798Z,46.90
2019-04-29T20:37:02.320Z,46.27
2019-04-29T20:39:36.126Z,46.09
2019-04-29T20:42:11.333Z,45.84
2019-04-29T20:44:49.343Z,45.63
2019-04-29T20:47:33.149Z,46.22
2019-04-29T20:50:01.024Z,45.87
2019-04-29T20:53:01.872Z,45.64
2019-04-29T20:55:36.765Z,45.77
2019-04-29T20:58:09.256Z,45.72
2019-04-29T21:00:42.663Z,45.73
2019-04-29T21:03:27.336Z,45.79
2019-04-29T21:05:54.943Z,45.83
2019-04-29T21:08:28.042Z,46.20
2019-04-29T21:11:05.773Z,45.84
2019-04-29T21:14:03.323Z,46.34
2019-04-29T21:16:39.942Z,46.29
2019-04-29T21:19:13.207Z,46.11
2019-04-29T21:21:47.526Z,46.03
2019-04-29T21:24:21.012Z,45.84
2019-04-29T21:26:57.427Z,46.25
2019-04-29T21:29:30.455Z,46.19
2019-04-29T21:32:05.681Z,46.07
2019-04-29T21:34:58.039Z,46.18
2019-04-29T21:37:48.105Z,46.48
2019-04-29T21:40:35.345Z,46.46
2019-04-29T21:43:19.098Z,47.00
2019-04-29T21:45:52.403Z,46.35
2019-04-29T21:48:33.620Z,46.44
2019-04-29T21:51:00.459Z,46.88
2019-04-29T21:53:36.581Z,46.87
2019-04-29T21:56:09.489Z,46.98
2019-04-29T21:58:42.934Z,46.96
2019-04-29T22:01:16.668Z,47.21
2019-04-29T22:03:51.437Z,47.16
2019-04-29T22:06:28.702Z,47.37
2019-04-29T22:09:01.367Z,47.16
2019-04-29T22:11:43.027Z,47.15
2019-04-29T22:14:14.160Z,46.93
2019-04-29T22:16:47.594Z,46.81
2019-04-29T22:19:26.040Z,47.00
2019-04-29T22:22:00.197Z,46.65
2019-04-29T22:24:30.174Z,46.96
2019-04-29T22:27:05.213Z,46.75
2019-04-29T22:29:39.363Z,46.94
2019-04-29T22:32:14.680Z,46.73
2019-04-29T22:34:49.532Z,47.09
2019-04-29T22:37:22.740Z,47.30
2019-04-29T22:39:58.633Z,47.24
2019-04-29T22:43:05.161Z,47.29
2019-04-29T22:45:35.585Z,47.40
2019-04-29T22:48:16.345Z,47.51
2019-04-29T22:50:45.472Z,47.52
2019-04-29T22:53:19.556Z,47.68
2019-04-29T22:55:53.734Z,47.97
2019-04-29T22:58:27.024Z,47.94
2019-04-29T23:01:02.469Z,48.18
2019-04-29T23:03:37.415Z,48.42
2019-04-29T23:06:10.744Z,48.81
2019-04-29T23:08:44.972Z,48.89
2019-04-29T23:11:18.444Z,49.15
2019-04-29T23:13:52.871Z,49.09
2019-04-29T23:16:26.222Z,49.30
2019-04-29T23:18:59.543Z,48.98
2019-04-29T23:21:51.103Z,49.28
2019-04-29T23:24:46.648Z,49.43
2019-04-29T23:27:19.967Z,49.30
2019-04-29T23:29:53.371Z,49.30
2019-04-29T23:32:26.704Z,49.20
2019-04-29T23:35:01.737Z,49.56
2019-04-29T23:37:35.863Z,49.48
2019-04-29T23:40:10.134Z,49.53
2019-04-29T23:42:47.945Z,49.48
2019-04-29T23:45:21.196Z,49.86
2019-04-29T23:47:55.556Z,49.88
2019-04-29T23:50:28.842Z,49.74
2019-04-29T23:53:01.993Z,50.13
2019-04-29T23:55:35.746Z,50.02
2019-04-29T23:58:37.304Z,50.16
